Time;durP1;ratioP1;P1;durP2;ratioP2;P2;SDS_P1;SDS_P2;PMS_P1;PMS_P2;Temp;Humidity;BMP_temperature;BMP_pressure;BME280_temperature;BME280_humidity;BME280_pressure;Samples;Min_cycle;Max_cycle;Signal;HPM_P1;HPM_P2
2022/02/26 00:02:25;;;;;;;12.93;8.38;;;1.00;99.90;;;;;;5017573;28;20023;-76
2022/02/26 00:04:51;;;;;;;9.63;8.10;;;1.00;99.90;;;;;;5024395;28;20027;-75
2022/02/26 00:07:17;;;;;;;13.02;8.50;;;0.90;99.90;;;;;;5021568;28;20092;-75
2022/02/26 00:09:43;;;;;;;11.52;8.45;;;0.90;99.90;;;;;;5024114;28;20440;-75
2022/02/26 00:12:08;;;;;;;15.05;10.48;;;1.00;99.90;;;;;;5023271;28;20051;-75
2022/02/26 00:14:35;;;;;;;12.77;9.10;;;0.90;99.90;;;;;;5018540;28;20080;-75
2022/02/26 00:17:00;;;;;;;11.57;8.63;;;0.90;99.90;;;;;;5021551;28;20100;-75
2022/02/26 00:19:26;;;;;;;10.43;8.02;;;1.00;99.90;;;;;;5023996;28;20085;-75
2022/02/26 00:21:52;;;;;;;10.13;8.00;;;1.10;99.90;;;;;;5021120;28;20034;-75
2022/02/26 00:24:17;;;;;;;12.45;8.70;;;1.10;99.90;;;;;;5027830;28;20365;-75
2022/02/26 00:26:43;;;;;;;14.25;8.23;;;1.20;99.90;;;;;;5022914;28;20480;-75
2022/02/26 00:29:09;;;;;;;12.40;8.93;;;1.20;99.90;;;;;;5026922;28;20108;-75
2022/02/26 00:31:34;;;;;;;10.70;8.70;;;1.30;99.90;;;;;;5013606;28;20014;-75
2022/02/26 00:34:00;;;;;;;10.52;8.48;;;1.30;99.90;;;;;;5026826;28;20047;-75
2022/02/26 00:36:25;;;;;;;12.45;8.75;;;1.30;99.90;;;;;;5025251;28;20021;-75
2022/02/26 00:38:51;;;;;;;14.20;9.90;;;1.20;99.90;;;;;;5025003;28;20483;-75
2022/02/26 00:41:16;;;;;;;12.85;8.95;;;1.30;99.90;;;;;;5022576;28;20025;-75
2022/02/26 00:43:42;;;;;;;13.40;9.60;;;1.50;99.90;;;;;;5025004;28;20022;-75
2022/02/26 00:46:08;;;;;;;12.65;8.45;;;1.30;99.90;;;;;;5023462;28;20033;-75
2022/02/26 00:51:19;;;;;;;13.60;8.90;;;1.40;99.90;;;;;;5012597;28;20522;-75
2022/02/26 00:53:44;;;;;;;10.98;8.13;;;1.50;99.90;;;;;;5021419;28;20108;-75
2022/02/26 00:56:10;;;;;;;11.48;8.13;;;1.40;99.90;;;;;;5022728;28;20061;-75
2022/02/26 00:58:35;;;;;;;11.52;8.88;;;1.40;99.90;;;;;;5024799;28;20026;-75
2022/02/26 01:01:01;;;;;;;13.73;8.93;;;1.40;99.90;;;;;;5022356;28;20030;-75
2022/02/26 01:03:26;;;;;;;10.50;9.18;;;1.30;99.90;;;;;;5025910;28;20045;-75
2022/02/26 01:05:52;;;;;;;12.45;9.10;;;1.20;99.90;;;;;;5028939;28;20061;-75
2022/02/26 01:08:17;;;;;;;11.85;9.00;;;1.20;99.90;;;;;;5019773;28;20431;-75
2022/02/26 01:10:43;;;;;;;12.27;8.85;;;1.20;99.90;;;;;;5026241;28;20442;-75
2022/02/26 01:13:09;;;;;;;12.85;8.95;;;1.20;99.90;;;;;;5020688;28;20541;-75
2022/02/26 01:15:34;;;;;;;10.43;8.68;;;1.30;99.90;;;;;;5023187;28;20541;-76
2022/02/26 01:18:00;;;;;;;12.55;9.20;;;1.40;99.90;;;;;;5022828;28;20431;-75
2022/02/26 01:20:26;;;;;;;12.73;9.18;;;1.30;99.90;;;;;;5023026;28;20033;-76
2022/02/26 01:22:51;;;;;;;12.02;8.40;;;1.40;99.90;;;;;;5023601;28;20048;-77
2022/02/26 01:25:17;;;;;;;12.10;8.85;;;1.40;99.90;;;;;;5024236;28;20026;-76
2022/02/26 01:27:42;;;;;;;15.77;10.32;;;1.40;99.90;;;;;;5025035;28;20483;-75
2022/02/26 01:30:09;;;;;;;16.50;10.45;;;1.30;99.90;;;;;;5021602;28;20026;-76
2022/02/26 01:32:35;;;;;;;18.77;9.65;;;1.30;99.90;;;;;;5022096;28;20014;-75
2022/02/26 01:35:01;;;;;;;13.68;8.95;;;1.40;99.90;;;;;;5021808;28;20030;-76
2022/02/26 01:37:26;;;;;;;18.02;9.20;;;1.40;99.90;;;;;;5026522;28;20473;-75
2022/02/26 01:39:52;;;;;;;16.13;10.40;;;1.40;99.90;;;;;;5020676;28;20101;-76
2022/02/26 01:42:21;;;;;;;17.80;9.85;;;1.40;99.90;;;;;;5024936;28;20395;-76
2022/02/26 01:44:52;;;;;;;12.18;9.18;;;1.30;99.90;;;;;;5020365;28;20510;-75
2022/02/26 01:47:18;;;;;;;14.07;8.55;;;1.30;99.90;;;;;;5003532;28;20043;-75
2022/02/26 01:49:44;;;;;;;16.15;9.35;;;1.30;99.90;;;;;;5026579;28;20033;-75
2022/02/26 01:52:10;;;;;;;14.40;9.88;;;1.30;99.90;;;;;;5021147;28;20022;-76
2022/02/26 01:54:37;;;;;;;17.67;10.52;;;1.30;99.90;;;;;;5004432;28;20106;-75
2022/02/26 01:57:04;;;;;;;15.38;9.52;;;1.30;99.90;;;;;;5021487;28;20091;-76
2022/02/26 01:59:30;;;;;;;11.52;8.40;;;1.30;99.90;;;;;;5017380;28;20083;-75
2022/02/26 02:01:55;;;;;;;11.63;7.88;;;1.30;99.90;;;;;;5020642;28;20127;-76
2022/02/26 02:04:21;;;;;;;12.90;8.27;;;1.30;99.90;;;;;;5023287;28;20037;-76
2022/02/26 02:06:46;;;;;;;18.48;11.63;;;1.20;99.90;;;;;;5014792;28;20038;-76
2022/02/26 02:09:12;;;;;;;12.07;8.98;;;1.20;99.90;;;;;;5021003;28;20048;-75
2022/02/26 02:11:39;;;;;;;15.10;9.27;;;1.20;99.90;;;;;;5021147;28;20014;-75
2022/02/26 02:14:05;;;;;;;15.77;9.38;;;1.20;99.90;;;;;;5024452;28;20033;-75
2022/02/26 02:16:31;;;;;;;16.85;9.50;;;1.20;99.90;;;;;;5024523;28;20017;-75
2022/02/26 02:18:56;;;;;;;13.10;7.57;;;1.20;99.90;;;;;;5020456;28;20373;-75
2022/02/26 02:21:22;;;;;;;12.30;7.70;;;1.40;99.90;;;;;;5024182;28;20472;-76
2022/02/26 02:23:48;;;;;;;12.82;7.90;;;1.20;99.90;;;;;;5018148;28;20018;-75
2022/02/26 02:26:17;;;;;;;14.40;8.23;;;1.20;99.90;;;;;;5019976;28;20052;-75
2022/02/26 02:28:43;;;;;;;13.40;8.32;;;1.10;99.90;;;;;;5025041;28;20495;-76
2022/02/26 02:31:08;;;;;;;12.07;8.43;;;1.00;99.90;;;;;;5021423;28;20040;-76
2022/02/26 02:33:44;;;;;;;12.27;8.18;;;0.90;99.90;;;;;;5021894;28;20025;-76
2022/02/26 02:36:09;;;;;;;14.05;7.95;;;0.90;99.90;;;;;;5022387;28;20030;-76
2022/02/26 02:38:35;;;;;;;11.55;8.00;;;0.80;99.90;;;;;;5015946;28;20033;-76
2022/02/26 02:41:01;;;;;;;15.43;7.75;;;0.80;99.90;;;;;;5019814;28;20030;-76
2022/02/26 02:43:26;;;;;;;14.57;7.82;;;0.90;99.90;;;;;;5023201;28;20025;-77
2022/02/26 02:45:52;;;;;;;13.82;7.88;;;0.80;99.90;;;;;;5021176;28;20026;-77
2022/02/26 02:48:17;;;;;;;15.05;7.53;;;0.80;99.90;;;;;;5023083;28;20064;-76
2022/02/26 02:50:43;;;;;;;16.88;8.27;;;0.70;99.90;;;;;;5022268;28;20176;-77
2022/02/26 02:53:09;;;;;;;12.00;8.63;;;0.70;99.90;;;;;;5021853;28;20492;-76
2022/02/26 02:55:34;;;;;;;12.88;7.63;;;0.60;99.90;;;;;;5021808;28;20018;-76
2022/02/26 02:58:00;;;;;;;15.70;7.85;;;0.60;99.90;;;;;;5026235;28;20022;-76
2022/02/26 03:00:27;;;;;;;16.02;8.18;;;0.70;99.90;;;;;;5019064;28;20029;-76
2022/02/26 03:02:53;;;;;;;12.80;8.18;;;0.60;99.90;;;;;;5026324;28;20123;-77
2022/02/26 03:05:21;;;;;;;17.98;8.60;;;0.60;99.90;;;;;;5019383;28;20484;-76
2022/02/26 03:07:47;;;;;;;14.98;9.32;;;0.60;99.90;;;;;;5024347;28;20045;-77
2022/02/26 03:10:14;;;;;;;14.13;9.05;;;0.60;99.90;;;;;;5020938;28;20097;-76
2022/02/26 03:12:39;;;;;;;14.57;8.82;;;0.50;99.90;;;;;;5022843;28;20474;-76
2022/02/26 03:15:06;;;;;;;14.65;8.82;;;0.50;99.90;;;;;;5022823;28;20037;-76
2022/02/26 03:17:32;;;;;;;12.70;8.18;;;0.50;99.90;;;;;;5023147;28;20032;-77
2022/02/26 03:19:58;;;;;;;11.30;7.93;;;0.50;99.90;;;;;;5023469;28;20022;-77
2022/02/26 03:22:23;;;;;;;12.50;7.75;;;0.50;99.90;;;;;;5026355;28;20495;-76
2022/02/26 03:24:49;;;;;;;13.02;7.57;;;0.40;99.90;;;;;;5026084;28;20049;-76
2022/02/26 03:27:15;;;;;;;15.05;8.43;;;0.50;99.90;;;;;;5027420;28;20447;-76
2022/02/26 03:29:41;;;;;;;13.15;7.50;;;0.40;99.90;;;;;;5024676;28;20014;-76
2022/02/26 03:32:08;;;;;;;14.23;8.00;;;0.50;99.90;;;;;;5024933;28;20033;-75
2022/02/26 03:34:34;;;;;;;14.50;8.25;;;0.50;99.90;;;;;;5025701;28;20029;-76
2022/02/26 03:36:59;;;;;;;12.88;7.75;;;0.50;99.90;;;;;;5028769;28;20029;-76
2022/02/26 03:39:29;;;;;;;16.83;8.43;;;0.50;99.90;;;;;;5022770;28;20076;-76
2022/02/26 03:41:54;;;;;;;17.90;9.02;;;0.50;99.90;;;;;;5027195;28;20065;-75
2022/02/26 03:44:20;;;;;;;15.02;8.50;;;0.50;99.90;;;;;;5025003;28;20067;-76
2022/02/26 03:46:45;;;;;;;15.10;8.25;;;0.50;99.90;;;;;;5026184;28;20426;-76
2022/02/26 03:49:11;;;;;;;17.05;9.02;;;0.40;99.90;;;;;;5023388;28;20036;-76
2022/02/26 03:51:36;;;;;;;14.48;8.38;;;0.40;99.90;;;;;;5024664;28;20504;-75
2022/02/26 03:54:02;;;;;;;13.05;8.40;;;0.30;99.90;;;;;;5022074;28;20551;-75
2022/02/26 03:56:28;;;;;;;16.27;9.23;;;0.40;99.90;;;;;;5025953;28;20464;-75
2022/02/26 03:58:55;;;;;;;20.50;10.23;;;0.40;99.90;;;;;;5025597;28;20109;-75
2022/02/26 04:01:21;;;;;;;20.25;12.18;;;0.30;99.90;;;;;;5025624;28;20029;-76
2022/02/26 04:03:47;;;;;;;18.48;11.07;;;0.30;99.90;;;;;;5025003;28;20028;-75
2022/02/26 04:06:13;;;;;;;19.20;10.43;;;0.10;99.90;;;;;;5023817;28;20112;-75
2022/02/26 04:08:39;;;;;;;14.52;9.63;;;0.10;99.90;;;;;;5025003;28;20383;-76
2022/02/26 04:11:05;;;;;;;20.00;13.80;;;0.10;99.90;;;;;;5029614;28;20034;-75
2022/02/26 04:13:31;;;;;;;21.35;13.15;;;0.20;99.90;;;;;;5022078;28;20014;-75
2022/02/26 04:15:56;;;;;;;18.83;12.88;;;0.10;99.90;;;;;;5029090;28;20487;-75
2022/02/26 04:18:22;;;;;;;19.23;11.88;;;0.20;99.90;;;;;;5021868;28;20022;-75
2022/02/26 04:20:47;;;;;;;23.25;14.45;;;0.20;99.90;;;;;;5026496;28;20032;-74
2022/02/26 04:23:13;;;;;;;21.98;12.10;;;0.20;99.90;;;;;;5024327;28;20029;-75
2022/02/26 04:25:39;;;;;;;17.20;11.75;;;0.10;99.90;;;;;;5025372;28;20399;-75
2022/02/26 04:28:05;;;;;;;23.63;13.10;;;0.20;99.90;;;;;;5020633;28;20026;-75
2022/02/26 04:30:30;;;;;;;19.85;10.88;;;0.20;99.90;;;;;;5023815;28;20096;-75
2022/02/26 04:32:56;;;;;;;16.58;10.55;;;0.30;99.90;;;;;;5022260;28;20091;-76
2022/02/26 04:35:22;;;;;;;15.32;10.50;;;0.20;99.90;;;;;;5023976;28;20033;-74
2022/02/26 04:37:48;;;;;;;18.33;11.82;;;0.10;99.90;;;;;;5016944;28;20173;-74
2022/02/26 04:40:15;;;;;;;15.55;10.40;;;0.20;99.90;;;;;;5013534;28;20116;-74
2022/02/26 04:42:41;;;;;;;18.05;10.27;;;0.10;99.90;;;;;;5012287;28;20037;-73
2022/02/26 04:45:08;;;;;;;15.75;10.30;;;0.20;99.90;;;;;;5013511;28;20385;-75
2022/02/26 04:47:34;;;;;;;16.73;10.13;;;0.30;99.90;;;;;;5013486;28;20365;-75
2022/02/26 04:49:59;;;;;;;19.30;12.05;;;0.40;99.90;;;;;;5012226;28;20037;-75
2022/02/26 04:52:25;;;;;;;20.92;11.15;;;0.30;99.90;;;;;;5013760;28;20025;-74
2022/02/26 04:54:50;;;;;;;17.00;10.50;;;0.40;99.90;;;;;;5013417;28;20033;-75
2022/02/26 04:57:16;;;;;;;17.17;9.68;;;0.40;99.90;;;;;;5012027;28;20018;-76
2022/02/26 04:59:42;;;;;;;14.93;9.65;;;0.50;99.90;;;;;;5012088;28;20024;-76
2022/02/26 05:02:07;;;;;;;19.55;11.07;;;0.50;99.90;;;;;;5011701;28;20415;-75
2022/02/26 05:04:33;;;;;;;18.30;10.07;;;0.50;99.90;;;;;;5013225;28;20105;-77
2022/02/26 05:06:58;;;;;;;17.38;12.05;;;0.60;99.90;;;;;;5013198;28;20110;-75
2022/02/26 05:09:24;;;;;;;23.33;13.98;;;0.50;99.90;;;;;;5013185;28;20029;-76
2022/02/26 05:11:49;;;;;;;24.55;14.93;;;0.20;99.90;;;;;;5012770;28;20522;-77
2022/02/26 05:14:15;;;;;;;21.40;13.60;;;0.20;99.90;;;;;;5013233;28;20033;-76
2022/02/26 05:16:40;;;;;;;20.95;12.93;;;0.30;99.90;;;;;;5011491;28;20057;-76
2022/02/26 05:19:06;;;;;;;19.20;11.95;;;0.30;99.90;;;;;;5011515;28;20026;-75
2022/02/26 05:21:31;;;;;;;22.95;12.30;;;0.40;99.90;;;;;;5012674;28;20075;-74
2022/02/26 05:23:57;;;;;;;18.02;10.98;;;0.40;99.90;;;;;;5011642;28;20068;-76
2022/02/26 05:26:23;;;;;;;17.02;9.95;;;0.40;99.90;;;;;;5012635;28;20515;-76
2022/02/26 05:28:48;;;;;;;16.48;10.80;;;0.40;99.90;;;;;;5012237;28;20065;-75
2022/02/26 05:31:14;;;;;;;19.33;11.60;;;0.40;99.90;;;;;;5012137;28;20030;-76
2022/02/26 05:33:39;;;;;;;14.90;9.88;;;0.20;99.90;;;;;;5012700;28;20026;-74
2022/02/26 05:36:05;;;;;;;17.85;9.02;;;0.20;99.90;;;;;;5011391;28;20033;-75
2022/02/26 05:38:30;;;;;;;14.27;9.80;;;0.30;99.90;;;;;;5012692;28;20026;-75
2022/02/26 05:40:56;;;;;;;17.63;10.13;;;0.30;99.90;;;;;;5011585;28;20488;-75
2022/02/26 05:43:21;;;;;;;15.90;10.50;;;0.50;99.90;;;;;;5011299;28;20022;-74
2022/02/26 05:45:47;;;;;;;19.30;10.35;;;0.50;99.90;;;;;;5044152;28;20037;-76
2022/02/26 05:48:13;;;;;;;15.48;9.23;;;0.60;99.90;;;;;;5012637;28;20033;-76
2022/02/26 05:50:39;;;;;;;14.05;9.50;;;0.60;99.90;;;;;;5011957;28;20040;-75
2022/02/26 05:53:04;;;;;;;13.23;9.90;;;0.70;99.90;;;;;;5012478;28;20103;-74
2022/02/26 05:55:31;;;;;;;16.25;11.15;;;0.70;99.90;;;;;;5012240;28;20026;-75
2022/02/26 05:57:57;;;;;;;19.23;11.63;;;0.80;99.90;;;;;;5012470;28;20033;-74
2022/02/26 06:00:23;;;;;;;19.05;10.40;;;0.80;99.90;;;;;;5011916;28;20029;-75
2022/02/26 06:02:49;;;;;;;20.63;12.32;;;0.60;99.90;;;;;;5012277;28;20118;-75
2022/02/26 06:05:14;;;;;;;20.35;12.50;;;0.50;99.90;;;;;;5012082;28;20101;-76
2022/02/26 06:07:40;;;;;;;20.58;11.85;;;0.40;99.90;;;;;;5012179;28;20030;-76
2022/02/26 06:10:06;;;;;;;20.33;11.40;;;0.30;99.90;;;;;;5011903;28;20543;-76
2022/02/26 06:12:32;;;;;;;22.48;14.02;;;0.40;99.90;;;;;;5012018;28;20026;-76
2022/02/26 06:14:57;;;;;;;16.85;11.98;;;0.50;99.90;;;;;;5010692;28;20077;-76
2022/02/26 06:17:23;;;;;;;15.23;10.82;;;0.60;99.90;;;;;;5012086;28;20511;-76
2022/02/26 06:19:49;;;;;;;17.30;12.30;;;0.60;99.90;;;;;;5012332;28;20057;-77
2022/02/26 06:22:15;;;;;;;23.10;14.52;;;0.60;99.90;;;;;;5011802;28;20026;-76
2022/02/26 06:24:40;;;;;;;21.13;13.07;;;0.70;99.90;;;;;;5010358;28;20559;-75
2022/02/26 06:27:06;;;;;;;19.70;13.23;;;0.60;99.90;;;;;;5007104;28;20105;-76
2022/02/26 06:29:32;;;;;;;21.60;12.98;;;0.60;99.90;;;;;;5000592;28;20037;-76
2022/02/26 06:31:57;;;;;;;18.40;11.90;;;0.60;99.90;;;;;;5005923;28;20495;-75
2022/02/26 06:34:23;;;;;;;19.63;12.40;;;0.60;99.90;;;;;;5010569;28;20396;-76
2022/02/26 06:36:48;;;;;;;19.98;12.95;;;0.50;99.90;;;;;;5011803;28;20022;-76
2022/02/26 06:39:14;;;;;;;23.10;14.27;;;0.50;99.90;;;;;;5011502;28;20547;-76
2022/02/26 06:41:40;;;;;;;24.15;14.52;;;0.50;99.90;;;;;;5011516;28;20040;-76
2022/02/26 06:44:06;;;;;;;21.38;13.85;;;0.50;99.90;;;;;;5008423;28;20034;-75
2022/02/26 06:46:35;;;;;;;23.65;17.27;;;0.60;99.90;;;;;;5010969;28;20026;-76
2022/02/26 06:49:01;;;;;;;32.58;25.23;;;0.70;99.90;;;;;;5010232;28;20022;-75
2022/02/26 06:51:27;;;;;;;94.47;84.22;;;0.60;99.90;;;;;;5011238;28;20084;-75
2022/02/26 06:53:53;;;;;;;57.80;51.67;;;0.60;99.90;;;;;;5015352;28;20026;-74
2022/02/26 06:56:18;;;;;;;95.05;80.93;;;0.60;99.90;;;;;;5013774;28;20014;-75
2022/02/26 06:58:44;;;;;;;108.50;76.43;;;0.70;99.90;;;;;;5005796;28;20057;-74
2022/02/26 07:01:09;;;;;;;95.57;65.68;;;0.80;99.90;;;;;;5006131;28;20476;-75
2022/02/26 07:03:35;;;;;;;29.63;21.85;;;0.80;99.90;;;;;;5009563;28;20022;-75
2022/02/26 07:06:00;;;;;;;36.05;25.73;;;0.90;99.90;;;;;;5016086;28;20030;-75
2022/02/26 07:08:26;;;;;;;26.45;17.33;;;0.90;99.90;;;;;;5025498;28;20081;-75
2022/02/26 07:10:53;;;;;;;23.90;15.15;;;1.00;99.90;;;;;;5023434;28;20026;-75
2022/02/26 07:13:19;;;;;;;21.85;14.10;;;1.00;99.90;;;;;;5018284;28;20022;-75
2022/02/26 07:15:44;;;;;;;27.60;18.00;;;1.00;99.90;;;;;;5015259;28;20029;-75
2022/02/26 07:18:10;;;;;;;21.73;15.63;;;0.90;99.90;;;;;;5027280;28;20399;-75
2022/02/26 07:20:36;;;;;;;23.00;17.02;;;1.00;99.90;;;;;;5014886;28;20120;-74
2022/02/26 07:23:03;;;;;;;22.67;14.63;;;1.10;99.90;;;;;;5024689;28;20030;-75
2022/02/26 07:25:28;;;;;;;30.30;21.70;;;1.10;99.90;;;;;;5017465;28;20018;-75
2022/02/26 07:27:54;;;;;;;34.92;22.10;;;1.10;99.90;;;;;;5013526;28;20025;-75
2022/02/26 07:30:19;;;;;;;24.85;18.50;;;1.10;99.90;;;;;;5026343;28;20021;-75
2022/02/26 07:32:45;;;;;;;24.92;16.67;;;1.20;99.90;;;;;;5027259;28;20033;-75
2022/02/26 07:35:11;;;;;;;25.23;17.35;;;1.20;99.90;;;;;;5025595;28;20030;-75
2022/02/26 07:37:37;;;;;;;27.13;19.85;;;1.10;99.90;;;;;;5018082;28;20049;-75
2022/02/26 07:40:04;;;;;;;24.98;18.48;;;1.30;99.90;;;;;;5014931;28;20038;-75
2022/02/26 07:42:30;;;;;;;26.13;15.88;;;1.20;99.90;;;;;;5014782;28;20020;-75
2022/02/26 07:44:56;;;;;;;32.47;20.25;;;1.20;99.90;;;;;;5014685;28;20029;-75
2022/02/26 07:47:22;;;;;;;30.92;20.40;;;1.20;99.90;;;;;;5014803;28;20030;-75
2022/02/26 07:49:48;;;;;;;28.50;17.35;;;1.20;99.90;;;;;;5014665;28;20065;-75
2022/02/26 07:52:15;;;;;;;23.20;16.17;;;1.40;99.90;;;;;;5013735;28;20398;-75
2022/02/26 07:54:41;;;;;;;23.02;15.50;;;1.50;99.90;;;;;;5013367;28;20399;-75
2022/02/26 07:57:07;;;;;;;24.60;15.77;;;1.60;99.90;;;;;;4998154;28;20094;-75
2022/02/26 07:59:33;;;;;;;24.65;14.82;;;1.70;99.90;;;;;;5005203;28;20049;-74
2022/02/26 08:01:59;;;;;;;21.65;14.38;;;1.60;99.90;;;;;;5013135;28;20065;-74
2022/02/26 08:04:26;;;;;;;21.75;15.50;;;1.60;99.90;;;;;;5013908;28;20034;-75
2022/02/26 08:06:52;;;;;;;24.48;13.48;;;1.70;99.90;;;;;;5014455;28;20022;-75
2022/02/26 08:09:17;;;;;;;18.08;13.40;;;1.90;99.90;;;;;;5014637;28;20076;-75
2022/02/26 08:11:43;;;;;;;21.35;12.43;;;1.80;99.90;;;;;;5010403;28;20073;-76
2022/02/26 08:14:08;;;;;;;20.52;13.60;;;1.80;99.90;;;;;;5003922;28;20068;-75
2022/02/26 08:16:34;;;;;;;20.25;13.13;;;1.80;99.90;;;;;;4997305;28;20476;-74
2022/02/26 08:19:00;;;;;;;18.10;12.80;;;1.90;99.90;;;;;;5004094;28;20055;-74
2022/02/26 08:21:26;;;;;;;20.35;12.68;;;2.00;99.90;;;;;;5013950;28;20029;-75
2022/02/26 08:23:52;;;;;;;20.20;11.98;;;2.20;99.90;;;;;;5014322;28;20025;-75
2022/02/26 08:26:18;;;;;;;18.83;12.30;;;2.20;99.90;;;;;;5033094;28;20038;-75
2022/02/26 08:28:44;;;;;;;21.58;12.25;;;2.40;99.90;;;;;;5012761;28;20028;-74
2022/02/26 08:31:10;;;;;;;22.50;12.20;;;2.30;99.90;;;;;;5000827;28;20052;-76
2022/02/26 08:33:35;;;;;;;22.25;12.55;;;2.40;99.90;;;;;;5004782;28;20105;-75
2022/02/26 08:36:01;;;;;;;20.38;12.40;;;2.50;99.90;;;;;;4994051;28;20452;-75
2022/02/26 08:38:26;;;;;;;18.15;11.60;;;2.50;99.90;;;;;;5003564;28;20068;-75
2022/02/26 08:40:52;;;;;;;18.98;11.57;;;2.30;99.90;;;;;;5012231;28;20033;-74
2022/02/26 08:43:17;;;;;;;18.73;10.82;;;2.50;99.90;;;;;;5013810;28;20030;-73
2022/02/26 08:45:43;;;;;;;17.20;10.10;;;2.60;99.90;;;;;;5013433;28;20026;-73
2022/02/26 08:48:09;;;;;;;17.52;10.32;;;2.70;99.90;;;;;;5012493;28;20026;-74
2022/02/26 08:50:35;;;;;;;16.10;10.38;;;2.70;99.90;;;;;;4997684;28;20034;-74
2022/02/26 08:53:01;;;;;;;18.92;9.48;;;2.80;99.90;;;;;;4992790;28;20026;-74
2022/02/26 08:55:26;;;;;;;15.38;9.25;;;2.80;99.90;;;;;;4993870;28;20039;-74
2022/02/26 08:57:52;;;;;;;16.60;9.98;;;2.70;99.90;;;;;;4992790;28;20031;-74
2022/02/26 09:00:18;;;;;;;17.67;9.30;;;2.90;99.90;;;;;;5008572;28;20034;-74
2022/02/26 09:02:44;;;;;;;17.25;8.35;;;2.70;99.90;;;;;;5013422;28;20380;-74
2022/02/26 09:05:10;;;;;;;16.92;8.52;;;2.90;99.90;;;;;;5013195;28;20041;-73
2022/02/26 09:07:36;;;;;;;13.90;8.25;;;3.10;99.90;;;;;;5011980;28;20018;-73
2022/02/26 09:10:03;;;;;;;17.55;7.75;;;3.00;99.90;;;;;;5013148;28;20034;-74
2022/02/26 09:12:28;;;;;;;14.95;7.30;;;3.20;99.90;;;;;;5004360;28;20072;-74
2022/02/26 09:14:54;;;;;;;15.02;7.82;;;3.10;99.90;;;;;;5005972;28;20037;-74
2022/02/26 09:17:19;;;;;;;16.70;8.52;;;3.40;99.90;;;;;;5002251;28;20046;-72
2022/02/26 09:19:45;;;;;;;18.02;8.25;;;3.40;99.90;;;;;;5012609;28;20399;-74
2022/02/26 09:22:10;;;;;;;15.10;6.47;;;3.40;99.90;;;;;;5012813;28;20029;-74
2022/02/26 09:24:36;;;;;;;13.93;6.45;;;3.60;99.90;;;;;;4996545;28;20029;-74
2022/02/26 09:27:02;;;;;;;14.48;5.80;;;3.70;99.90;;;;;;4993360;28;20098;-75
2022/02/26 09:29:28;;;;;;;12.07;5.53;;;3.70;99.90;;;;;;5007558;28;20050;-74
2022/02/26 09:31:53;;;;;;;14.20;5.35;;;3.70;99.90;;;;;;5006151;28;20026;-74
2022/02/26 09:34:20;;;;;;;13.70;5.47;;;3.70;99.90;;;;;;5004306;28;20021;-74
2022/02/26 09:36:47;;;;;;;15.05;5.22;;;3.80;99.90;;;;;;5001082;28;20033;-74
2022/02/26 09:39:13;;;;;;;14.27;5.53;;;3.80;99.90;;;;;;5011282;28;20583;-77
2022/02/26 09:41:40;;;;;;;14.57;5.25;;;4.00;99.90;;;;;;5004496;28;20092;-75
2022/02/26 09:44:07;;;;;;;12.73;4.78;;;3.70;99.90;;;;;;5007769;28;20026;-75
2022/02/26 09:46:33;;;;;;;10.52;4.00;;;3.70;99.90;;;;;;5004607;28;20045;-75
2022/02/26 09:48:58;;;;;;;18.08;4.60;;;3.80;99.90;;;;;;5006241;28;20030;-75
2022/02/26 09:51:24;;;;;;;12.05;4.20;;;3.90;99.90;;;;;;5000474;28;20038;-75
2022/02/26 09:53:51;;;;;;;12.77;4.40;;;3.90;99.90;;;;;;4999383;28;20038;-75
2022/02/26 09:56:16;;;;;;;12.98;4.00;;;3.90;99.90;;;;;;5003327;28;20026;-74
2022/02/26 09:58:42;;;;;;;14.48;3.70;;;4.10;99.90;;;;;;5007352;28;20183;-75
2022/02/26 10:01:08;;;;;;;17.88;4.43;;;4.10;99.90;;;;;;5002961;28;20108;-75
2022/02/26 10:03:36;;;;;;;16.55;3.88;;;4.10;99.90;;;;;;5007765;28;20030;-75
2022/02/26 10:06:04;;;;;;;16.02;4.38;;;4.20;99.90;;;;;;5004153;28;20384;-75
2022/02/26 10:08:39;;;;;;;14.95;3.80;;;4.10;99.90;;;;;;5008251;28;20029;-75
2022/02/26 10:11:06;;;;;;;14.15;4.03;;;4.00;99.90;;;;;;5012167;28;20026;-75
2022/02/26 10:13:40;;;;;;;13.43;3.83;;;4.20;99.90;;;;;;4999203;28;20029;-75
2022/02/26 10:16:05;;;;;;;12.57;3.45;;;4.30;99.90;;;;;;5000103;28;20121;-75
2022/02/26 10:18:32;;;;;;;14.07;3.88;;;4.30;99.90;;;;;;5010289;28;20100;-75
2022/02/26 10:21:00;;;;;;;17.23;3.65;;;4.40;99.90;;;;;;5012075;28;20036;-74
2022/02/26 10:23:26;;;;;;;14.60;4.35;;;4.50;99.90;;;;;;5005218;28;20034;-74
2022/02/26 10:25:58;;;;;;;11.60;3.30;;;4.60;99.90;;;;;;4992216;28;20461;-74
2022/02/26 10:28:24;;;;;;;18.27;4.47;;;4.50;99.90;;;;;;5010801;28;20396;-74
2022/02/26 10:30:50;;;;;;;11.02;3.33;;;4.40;99.90;;;;;;4998808;28;20035;-74
2022/02/26 10:33:23;;;;;;;13.20;4.03;;;4.50;99.90;;;;;;5011692;28;20030;-75
2022/02/26 10:35:54;;;;;;;15.40;3.60;;;4.40;99.90;;;;;;5011911;28;20022;-75
2022/02/26 10:38:22;;;;;;;13.60;4.45;;;4.60;99.90;;;;;;5012073;28;20376;-74
2022/02/26 10:40:55;;;;;;;10.63;3.72;;;5.00;99.90;;;;;;4997333;28;20026;-75
2022/02/26 10:43:41;;;;;;;14.32;3.72;;;4.70;99.90;;;;;;4998663;28;20032;-75
2022/02/26 10:46:33;;;;;;;17.98;4.35;;;5.10;99.90;;;;;;5005424;28;20030;-74
2022/02/26 10:49:04;;;;;;;12.05;3.67;;;4.70;99.90;;;;;;5005729;28;20037;-75
2022/02/26 10:51:32;;;;;;;12.02;3.63;;;4.70;99.90;;;;;;5008435;28;20029;-74
2022/02/26 10:56:35;;;;;;;11.05;3.10;;;5.20;99.90;;;;;;4980329;28;20042;-72
2022/02/26 10:59:02;;;;;;;12.57;3.60;;;5.10;99.90;;;;;;4970979;28;20078;-72
2022/02/26 11:01:27;;;;;;;15.68;3.80;;;5.00;99.90;;;;;;4981723;28;20018;-72
2022/02/26 11:03:55;;;;;;;14.75;3.30;;;4.90;99.90;;;;;;4962255;28;20496;-72
2022/02/26 11:06:22;;;;;;;21.05;4.20;;;5.00;99.90;;;;;;4984156;28;20418;-72
2022/02/26 11:08:49;;;;;;;18.10;4.25;;;4.90;99.90;;;;;;4964747;28;20473;-73
2022/02/26 11:11:16;;;;;;;10.05;3.22;;;5.00;99.90;;;;;;4975007;28;20109;-73
2022/02/26 11:13:43;;;;;;;13.40;3.33;;;5.00;99.90;;;;;;4965563;28;20019;-72
2022/02/26 11:16:09;;;;;;;15.68;4.10;;;4.80;99.90;;;;;;4984661;28;20440;-73
2022/02/26 11:18:38;;;;;;;12.50;3.50;;;4.90;99.90;;;;;;4987740;28;20022;-72
2022/02/26 11:21:08;;;;;;;17.13;3.58;;;4.90;99.90;;;;;;4982238;28;20034;-72
2022/02/26 11:23:34;;;;;;;11.25;4.50;;;5.10;99.90;;;;;;4979480;28;20041;-72
2022/02/26 11:25:59;;;;;;;14.20;3.38;;;5.10;99.90;;;;;;4982595;28;20480;-72
2022/02/26 11:28:26;;;;;;;12.25;3.35;;;5.00;99.90;;;;;;4984985;28;20030;-72
2022/02/26 11:30:57;;;;;;;12.88;3.60;;;5.00;99.90;;;;;;4963983;28;20431;-72
2022/02/26 11:33:23;;;;;;;16.00;6.72;;;5.20;99.90;;;;;;4977607;28;20407;-72
2022/02/26 11:35:51;;;;;;;10.95;3.60;;;5.30;99.90;;;;;;4985507;28;20388;-72
2022/02/26 11:38:18;;;;;;;12.95;3.35;;;5.30;99.90;;;;;;4984787;28;20021;-72
2022/02/26 11:40:47;;;;;;;9.98;3.15;;;5.20;99.90;;;;;;4980256;28;20114;-73
2022/02/26 11:43:36;;;;;;;11.45;2.65;;;5.20;99.90;;;;;;4986782;28;20037;-72
2022/02/26 11:46:27;;;;;;;13.82;4.10;;;5.10;99.90;;;;;;4984213;28;20034;-72
2022/02/26 11:48:54;;;;;;;11.93;3.03;;;5.10;99.90;;;;;;4986766;28;20037;-72
2022/02/26 11:51:20;;;;;;;12.50;3.28;;;5.30;99.90;;;;;;4986896;28;20073;-71
2022/02/26 11:53:46;;;;;;;11.32;3.90;;;5.40;99.90;;;;;;4986331;28;20018;-72
2022/02/26 11:56:12;;;;;;;8.02;2.60;;;5.50;99.90;;;;;;4981744;28;20627;-72
2022/02/26 11:58:39;;;;;;;12.70;2.95;;;5.50;99.90;;;;;;4978630;28;20080;-72
2022/02/26 12:01:14;;;;;;;10.68;2.92;;;5.30;99.90;;;;;;4987417;28;20105;-72
2022/02/26 12:03:41;;;;;;;6.80;2.30;;;5.10;99.90;;;;;;4979974;28;20031;-72
2022/02/26 12:06:09;;;;;;;6.88;2.60;;;5.20;99.90;;;;;;4966792;28;20031;-72
2022/02/26 12:08:55;;;;;;;9.98;2.42;;;5.30;99.90;;;;;;4956198;29;20028;-72
2022/02/26 12:11:20;;;;;;;7.82;2.42;;;5.30;99.90;;;;;;4967799;28;20504;-72
2022/02/26 12:13:54;;;;;;;11.05;3.42;;;5.50;99.90;;;;;;4945076;28;20077;-72
2022/02/26 12:16:22;;;;;;;12.23;3.25;;;5.40;99.90;;;;;;4963047;28;20027;-72
2022/02/26 12:19:04;;;;;;;13.05;4.15;;;5.60;99.90;;;;;;4982845;28;20368;-72
2022/02/26 12:21:35;;;;;;;11.10;3.33;;;5.60;99.90;;;;;;4978722;28;20027;-72
2022/02/26 12:24:40;;;;;;;8.75;4.00;;;5.70;99.90;;;;;;4965152;28;20041;-72
2022/02/26 12:27:10;;;;;;;8.45;2.60;;;5.80;99.90;;;;;;4963506;28;20038;-72
2022/02/26 12:29:38;;;;;;;12.90;3.80;;;5.60;99.90;;;;;;4972556;28;20046;-72
2022/02/26 12:32:13;;;;;;;10.25;3.00;;;5.30;99.90;;;;;;4947623;28;20023;-72
2022/02/26 12:35:01;;;;;;;10.13;3.00;;;5.30;99.90;;;;;;4944831;28;20023;-72
2022/02/26 12:37:38;;;;;;;9.77;3.25;;;5.40;99.90;;;;;;4938202;28;20655;-72
2022/02/26 12:40:09;;;;;;;13.20;4.00;;;5.40;99.90;;;;;;4966361;28;20035;-72
2022/02/26 12:42:38;;;;;;;13.48;3.50;;;5.50;99.90;;;;;;4951173;28;20073;-72
2022/02/26 12:45:08;;;;;;;8.82;3.40;;;5.60;99.90;;;;;;4965185;28;20025;-72
2022/02/26 12:47:34;;;;;;;9.30;3.20;;;5.40;99.90;;;;;;4970987;28;20024;-72